Time;durP1;ratioP1;P1;durP2;ratioP2;P2;SDS_P1;SDS_P2;PMS_P1;PMS_P2;Temp;Humidity;BMP_temperature;BMP_pressure;BME280_temperature;BME280_humidity;BME280_pressure;Samples;Min_cycle;Max_cycle;Signal;HPM_P1;HPM_P2
2021/05/21 00:00:06;;;;;;;12.65;7.03;;;;;;;;;;5046652;28;20028;-53
2021/05/21 00:02:32;;;;;;;18.83;12.20;;;;;;;;;;5046808;28;20028;-54
2021/05/21 00:04:58;;;;;;;74.28;44.05;;;;;;;;;;5046741;28;20404;-55
2021/05/21 00:07:24;;;;;;;107.43;61.63;;;;;;;;;;5046437;28;20081;-49
2021/05/21 00:09:50;;;;;;;64.28;34.40;;;;;;;;;;5046226;28;20020;-54
2021/05/21 00:12:16;;;;;;;34.33;16.77;;;;;;;;;;5046547;28;20077;-52
2021/05/21 00:14:43;;;;;;;76.95;41.67;;;;;;;;;;5047069;28;20040;-51
2021/05/21 00:17:09;;;;;;;62.30;35.90;;;;;;;;;;5046191;28;20157;-52
2021/05/21 00:19:35;;;;;;;30.30;18.98;;;;;;;;;;5046694;28;20021;-51
2021/05/21 00:22:01;;;;;;;40.05;22.67;;;;;;;;;;5046290;28;20058;-49
2021/05/21 00:24:27;;;;;;;61.95;36.17;;;;;;;;;;5072146;28;20039;-52
2021/05/21 00:26:53;;;;;;;82.50;47.45;;;;;;;;;;5073547;28;20495;-53
2021/05/21 00:29:19;;;;;;;118.25;70.35;;;;;;;;;;5073430;28;20033;-54
2021/05/21 00:31:45;;;;;;;71.50;42.22;;;;;;;;;;5073407;28;20016;-54
2021/05/21 00:34:12;;;;;;;141.30;83.45;;;;;;;;;;5073480;28;20032;-54
2021/05/21 00:36:38;;;;;;;104.63;62.08;;;;;;;;;;5054971;28;20044;-54
2021/05/21 00:39:05;;;;;;;184.27;106.47;;;;;;;;;;5073303;28;20027;-53
2021/05/21 00:41:31;;;;;;;52.40;32.53;;;;;;;;;;5073373;28;20073;-54
2021/05/21 00:43:57;;;;;;;144.55;83.20;;;;;;;;;;5073513;28;20086;-54
2021/05/21 00:46:24;;;;;;;94.82;59.85;;;;;;;;;;5073263;28;20021;-53
2021/05/21 00:48:50;;;;;;;78.68;49.10;;;;;;;;;;5073329;28;20035;-54
2021/05/21 00:51:16;;;;;;;35.28;21.23;;;;;;;;;;5072935;28;20051;-52
2021/05/21 00:53:42;;;;;;;53.30;29.00;;;;;;;;;;5073191;28;20037;-54
2021/05/21 00:56:09;;;;;;;41.10;24.88;;;;;;;;;;5073511;28;20407;-53
2021/05/21 00:58:36;;;;;;;36.42;23.73;;;;;;;;;;5073228;28;20111;-56
2021/05/21 01:01:02;;;;;;;47.30;28.42;;;;;;;;;;5073127;28;20047;-54
2021/05/21 01:03:28;;;;;;;36.75;21.35;;;;;;;;;;5073269;28;20025;-54
2021/05/21 01:05:54;;;;;;;53.00;31.33;;;;;;;;;;5073173;28;20103;-54
2021/05/21 01:08:21;;;;;;;26.83;16.75;;;;;;;;;;5073117;28;20461;-54
2021/05/21 01:10:49;;;;;;;26.05;15.85;;;;;;;;;;5073037;28;20041;-51
2021/05/21 01:13:15;;;;;;;37.53;21.58;;;;;;;;;;5073110;28;20472;-53
2021/05/21 01:15:42;;;;;;;42.65;24.92;;;;;;;;;;5073034;28;20086;-50
2021/05/21 01:18:10;;;;;;;107.13;59.95;;;;;;;;;;5054931;28;20060;-52
2021/05/21 01:20:36;;;;;;;50.72;30.63;;;;;;;;;;5072952;28;20028;-53
2021/05/21 01:23:03;;;;;;;24.77;14.68;;;;;;;;;;5072888;28;20035;-52
2021/05/21 01:25:30;;;;;;;44.10;23.95;;;;;;;;;;5073147;28;20021;-54
2021/05/21 01:27:59;;;;;;;26.25;16.30;;;;;;;;;;5072988;28;20051;-54
2021/05/21 01:30:25;;;;;;;28.63;17.52;;;;;;;;;;5072899;28;20094;-52
2021/05/21 01:32:51;;;;;;;32.30;18.95;;;;;;;;;;5073105;28;20142;-53
2021/05/21 01:35:18;;;;;;;26.38;14.10;;;;;;;;;;5072869;28;20027;-54
2021/05/21 01:37:45;;;;;;;13.13;8.13;;;;;;;;;;5072800;28;20502;-55
2021/05/21 01:40:11;;;;;;;21.98;11.25;;;;;;;;;;5072976;28;20059;-54
2021/05/21 01:42:38;;;;;;;23.38;14.40;;;;;;;;;;5073311;28;20024;-47
2021/05/21 01:45:05;;;;;;;27.15;16.35;;;;;;;;;;5076501;28;20020;-51
2021/05/21 01:47:33;;;;;;;9.65;6.47;;;;;;;;;;5076802;28;20095;-46
2021/05/21 01:50:00;;;;;;;8.02;5.72;;;;;;;;;;5076859;28;20173;-46
2021/05/21 01:52:29;;;;;;;12.85;7.72;;;;;;;;;;5076840;28;20036;-48
2021/05/21 01:54:55;;;;;;;18.52;9.90;;;;;;;;;;5076665;28;20029;-47
2021/05/21 01:57:21;;;;;;;13.23;8.10;;;;;;;;;;5076451;28;20465;-47
2021/05/21 01:59:47;;;;;;;15.98;9.88;;;;;;;;;;5076452;28;20013;-47
2021/05/21 02:02:13;;;;;;;12.52;9.23;;;;;;;;;;5076465;28;20036;-48
2021/05/21 02:04:40;;;;;;;15.25;8.52;;;;;;;;;;5076377;28;20108;-47
2021/05/21 02:07:07;;;;;;;19.85;12.15;;;;;;;;;;5076599;28;20036;-47
2021/05/21 02:09:45;;;;;;;17.52;8.68;;;;;;;;;;5076255;28;20739;-49
2021/05/21 02:12:11;;;;;;;14.52;9.25;;;;;;;;;;5058267;28;20028;-46
2021/05/21 02:14:37;;;;;;;16.40;9.25;;;;;;;;;;5076445;28;20499;-46
2021/05/21 02:17:03;;;;;;;13.85;6.68;;;;;;;;;;5076146;28;20072;-47
2021/05/21 02:19:30;;;;;;;15.18;9.35;;;;;;;;;;5076177;28;20086;-50
2021/05/21 02:21:56;;;;;;;18.00;10.10;;;;;;;;;;5075681;28;20099;-49
2021/05/21 02:24:22;;;;;;;11.18;6.53;;;;;;;;;;5076143;28;20036;-48
2021/05/21 02:26:48;;;;;;;6.68;4.68;;;;;;;;;;5076355;28;20028;-52
2021/05/21 02:29:15;;;;;;;9.95;5.68;;;;;;;;;;5075954;28;20381;-53
2021/05/21 02:31:41;;;;;;;6.25;4.55;;;;;;;;;;5075782;28;20052;-53
2021/05/21 02:34:07;;;;;;;16.63;6.65;;;;;;;;;;5075886;28;20031;-46
2021/05/21 02:36:33;;;;;;;8.00;4.55;;;;;;;;;;5075667;28;20095;-53
2021/05/21 02:38:59;;;;;;;8.75;5.63;;;;;;;;;;5075719;28;20158;-47
2021/05/21 02:41:25;;;;;;;11.93;4.93;;;;;;;;;;5075758;28;20465;-48
2021/05/21 02:43:51;;;;;;;11.48;6.43;;;;;;;;;;5075659;28;20028;-52
2021/05/21 02:46:17;;;;;;;7.68;5.75;;;;;;;;;;5075486;28;20104;-52
2021/05/21 02:48:43;;;;;;;8.18;5.40;;;;;;;;;;5075600;28;20028;-53
2021/05/21 02:51:09;;;;;;;10.13;5.25;;;;;;;;;;5075342;28;20527;-48
2021/05/21 02:53:35;;;;;;;9.48;4.35;;;;;;;;;;5075544;28;20106;-48
2021/05/21 02:56:01;;;;;;;7.57;5.50;;;;;;;;;;5075536;28;20383;-47
2021/05/21 02:58:27;;;;;;;14.50;6.18;;;;;;;;;;5075224;28;20032;-49
2021/05/21 03:00:54;;;;;;;7.30;4.30;;;;;;;;;;5075347;28;20465;-50
2021/05/21 03:03:20;;;;;;;6.25;4.35;;;;;;;;;;5075614;28;20024;-48
2021/05/21 03:05:46;;;;;;;6.53;4.90;;;;;;;;;;5075272;28;20032;-48
2021/05/21 03:08:12;;;;;;;5.53;4.40;;;;;;;;;;5075193;28;20512;-48
2021/05/21 03:10:38;;;;;;;7.70;4.20;;;;;;;;;;5075286;28;20461;-50
2021/05/21 03:13:04;;;;;;;10.50;4.65;;;;;;;;;;5075327;28;20024;-51
2021/05/21 03:15:31;;;;;;;7.60;4.10;;;;;;;;;;5075124;28;20107;-52
2021/05/21 03:17:59;;;;;;;7.32;4.70;;;;;;;;;;5074751;28;20033;-53
2021/05/21 03:20:25;;;;;;;9.40;5.53;;;;;;;;;;5073755;28;20021;-49
2021/05/21 03:22:51;;;;;;;5.35;4.30;;;;;;;;;;5074723;28;20035;-51
2021/05/21 03:25:17;;;;;;;7.68;5.20;;;;;;;;;;5075047;28;20473;-47
2021/05/21 03:27:43;;;;;;;6.82;4.30;;;;;;;;;;5074691;28;20119;-47
2021/05/21 03:30:10;;;;;;;10.82;5.18;;;;;;;;;;5074739;28;20025;-47
2021/05/21 03:32:36;;;;;;;6.57;4.38;;;;;;;;;;5074678;28;20032;-47
2021/05/21 03:35:03;;;;;;;6.15;3.55;;;;;;;;;;5074682;28;20029;-47
2021/05/21 03:37:29;;;;;;;7.15;4.28;;;;;;;;;;5074423;28;20071;-49
2021/05/21 03:39:55;;;;;;;10.02;4.53;;;;;;;;;;5074703;28;20016;-48
2021/05/21 03:42:24;;;;;;;6.10;4.20;;;;;;;;;;5074488;28;20112;-47
2021/05/21 03:44:50;;;;;;;10.05;4.38;;;;;;;;;;5074553;28;20100;-49
2021/05/21 03:47:16;;;;;;;8.15;4.65;;;;;;;;;;5073113;28;20028;-51
2021/05/21 03:49:42;;;;;;;7.70;4.78;;;;;;;;;;5074306;28;20029;-52
2021/05/21 03:52:09;;;;;;;9.35;4.53;;;;;;;;;;5073806;28;20052;-46
2021/05/21 03:54:35;;;;;;;8.52;3.90;;;;;;;;;;5074463;28;20099;-47
2021/05/21 03:57:01;;;;;;;9.40;4.55;;;;;;;;;;5074422;28;20055;-48
2021/05/21 03:59:27;;;;;;;6.70;3.25;;;;;;;;;;5074455;28;20043;-52
2021/05/21 04:01:53;;;;;;;7.65;3.90;;;;;;;;;;5074388;28;20035;-58
2021/05/21 04:04:19;;;;;;;10.90;4.60;;;;;;;;;;5074179;28;20021;-56
2021/05/21 04:06:45;;;;;;;3.53;3.22;;;;;;;;;;5073616;28;20107;-54
2021/05/21 04:09:11;;;;;;;6.72;4.25;;;;;;;;;;5074099;28;20031;-53
2021/05/21 04:11:38;;;;;;;5.55;3.90;;;;;;;;;;5074190;28;20113;-52
2021/05/21 04:14:05;;;;;;;4.38;3.03;;;;;;;;;;5055989;28;20039;-53
2021/05/21 04:16:31;;;;;;;3.50;3.10;;;;;;;;;;5073831;28;20031;-53
2021/05/21 04:18:57;;;;;;;7.68;3.78;;;;;;;;;;5073778;28;20028;-53
2021/05/21 04:21:24;;;;;;;7.68;3.63;;;;;;;;;;5073264;28;20020;-53
2021/05/21 04:23:53;;;;;;;14.25;6.22;;;;;;;;;;5073641;28;20044;-52
2021/05/21 04:26:19;;;;;;;11.40;7.90;;;;;;;;;;5073850;28;20405;-52
2021/05/21 04:28:48;;;;;;;13.60;9.88;;;;;;;;;;5073846;28;20054;-53
2021/05/21 04:31:14;;;;;;;20.30;14.63;;;;;;;;;;5073601;28;20024;-52
2021/05/21 04:33:40;;;;;;;6.07;4.32;;;;;;;;;;5073584;28;20021;-52
2021/05/21 04:36:06;;;;;;;8.85;4.65;;;;;;;;;;5073546;28;20086;-53
2021/05/21 04:38:32;;;;;;;7.13;5.43;;;;;;;;;;5073367;28;20090;-54
2021/05/21 04:40:59;;;;;;;8.02;5.55;;;;;;;;;;5073462;28;20728;-53
2021/05/21 04:43:26;;;;;;;11.43;5.30;;;;;;;;;;5073472;28;20032;-53
2021/05/21 04:45:52;;;;;;;5.18;3.53;;;;;;;;;;5073371;28;20095;-54
2021/05/21 04:48:18;;;;;;;9.95;6.38;;;;;;;;;;5073461;28;20029;-53
2021/05/21 04:50:48;;;;;;;13.90;9.10;;;;;;;;;;5073179;28;20099;-53
2021/05/21 04:53:14;;;;;;;10.20;6.55;;;;;;;;;;5073181;28;20434;-53
2021/05/21 04:55:41;;;;;;;5.65;3.72;;;;;;;;;;5073486;28;20082;-53
2021/05/21 04:58:07;;;;;;;6.88;4.47;;;;;;;;;;5073309;28;20029;-53
2021/05/21 05:00:34;;;;;;;13.80;6.85;;;;;;;;;;5073213;28;20027;-53
2021/05/21 05:03:06;;;;;;;6.60;3.63;;;;;;;;;;5073285;28;20032;-53
2021/05/21 05:05:33;;;;;;;11.48;5.70;;;;;;;;;;5073231;28;20029;-54
2021/05/21 05:07:59;;;;;;;4.72;3.50;;;;;;;;;;5073194;28;20023;-54
2021/05/21 05:10:25;;;;;;;9.40;4.05;;;;;;;;;;5073294;28;20377;-53
2021/05/21 05:12:52;;;;;;;6.72;4.75;;;;;;;;;;5073012;28;20103;-55
2021/05/21 05:15:19;;;;;;;4.47;3.55;;;;;;;;;;5073122;28;20519;-56
2021/05/21 05:17:48;;;;;;;8.13;4.55;;;;;;;;;;5072999;28;20039;-55
2021/05/21 05:20:14;;;;;;;8.13;4.20;;;;;;;;;;5077189;28;20048;-54
2021/05/21 05:22:40;;;;;;;9.32;4.35;;;;;;;;;;5077073;28;20089;-52
2021/05/21 05:25:07;;;;;;;7.05;3.67;;;;;;;;;;5077206;28;20016;-49
2021/05/21 05:27:33;;;;;;;3.72;3.22;;;;;;;;;;5077056;28;20028;-51
2021/05/21 05:29:59;;;;;;;5.18;3.60;;;;;;;;;;5077252;28;20024;-57
2021/05/21 05:32:25;;;;;;;5.55;3.47;;;;;;;;;;5076977;28;20025;-54
2021/05/21 05:34:51;;;;;;;7.43;3.83;;;;;;;;;;5077030;28;20020;-54
2021/05/21 05:37:17;;;;;;;4.95;3.13;;;;;;;;;;5076687;28;20534;-54
2021/05/21 05:39:44;;;;;;;9.52;4.50;;;;;;;;;;5077029;28;20021;-54
2021/05/21 05:42:10;;;;;;;6.18;2.95;;;;;;;;;;5076891;28;20028;-53
2021/05/21 05:44:36;;;;;;;6.25;4.60;;;;;;;;;;5076653;28;20020;-53
2021/05/21 05:47:02;;;;;;;4.72;3.75;;;;;;;;;;5076773;28;20029;-53
2021/05/21 05:49:28;;;;;;;27.98;15.35;;;;;;;;;;5076583;28;20107;-48
2021/05/21 05:51:54;;;;;;;19.83;10.15;;;;;;;;;;5075206;28;20048;-53
2021/05/21 05:54:20;;;;;;;26.85;15.77;;;;;;;;;;5075233;28;20476;-52
2021/05/21 05:56:46;;;;;;;23.63;13.50;;;;;;;;;;5075131;28;20124;-55
2021/05/21 05:59:12;;;;;;;7.75;5.40;;;;;;;;;;5075166;28;20032;-54
2021/05/21 06:01:38;;;;;;;7.88;4.60;;;;;;;;;;5075154;28;20036;-53
2021/05/21 06:04:04;;;;;;;8.70;4.97;;;;;;;;;;5075335;28;20380;-52
2021/05/21 06:06:31;;;;;;;15.07;7.05;;;;;;;;;;5075119;28;20094;-52
2021/05/21 06:08:57;;;;;;;9.27;5.78;;;;;;;;;;5075286;28;20032;-52
2021/05/21 06:11:23;;;;;;;14.27;6.10;;;;;;;;;;5075063;28;20100;-51
2021/05/21 06:13:49;;;;;;;7.18;4.15;;;;;;;;;;5075179;28;20054;-52
2021/05/21 06:16:16;;;;;;;7.82;5.38;;;;;;;;;;5075470;28;20021;-54
2021/05/21 06:18:42;;;;;;;20.98;13.43;;;;;;;;;;5074963;28;20054;-52
2021/05/21 06:21:09;;;;;;;20.30;13.52;;;;;;;;;;5075023;28;20028;-51
2021/05/21 06:23:38;;;;;;;9.63;6.07;;;;;;;;;;5075493;28;20082;-52
2021/05/21 06:26:13;;;;;;;31.88;13.05;;;;;;;;;;5075186;28;20040;-53
2021/05/21 06:28:41;;;;;;;15.27;8.70;;;;;;;;;;5058262;28;20016;-54
2021/05/21 06:31:07;;;;;;;24.80;15.60;;;;;;;;;;5074462;28;20100;-50
2021/05/21 06:33:34;;;;;;;14.82;8.50;;;;;;;;;;5074743;28;20025;-52
2021/05/21 06:36:00;;;;;;;7.57;5.50;;;;;;;;;;5074603;28;20097;-54
2021/05/21 06:38:26;;;;;;;11.27;8.20;;;;;;;;;;5074856;28;20036;-55
2021/05/21 06:40:52;;;;;;;8.80;6.07;;;;;;;;;;5074417;28;20464;-55
2021/05/21 06:43:19;;;;;;;37.67;20.50;;;;;;;;;;5074633;28;20514;-54
2021/05/21 06:45:48;;;;;;;32.90;20.33;;;;;;;;;;5074396;28;20107;-53
2021/05/21 06:48:14;;;;;;;29.52;17.25;;;;;;;;;;5074384;28;20024;-48
2021/05/21 06:50:41;;;;;;;28.85;14.73;;;;;;;;;;5048935;28;722422;-53
2021/05/21 06:53:07;;;;;;;15.38;8.95;;;;;;;;;;5075312;28;20029;-48
2021/05/21 06:55:33;;;;;;;19.40;11.48;;;;;;;;;;5075301;28;20032;-55
2021/05/21 06:58:00;;;;;;;7.80;5.65;;;;;;;;;;5075431;28;20463;-54
2021/05/21 07:00:26;;;;;;;24.83;12.77;;;;;;;;;;5075191;28;20369;-54
2021/05/21 07:02:52;;;;;;;12.93;7.22;;;;;;;;;;5075106;28;20031;-54
2021/05/21 07:05:18;;;;;;;24.90;12.48;;;;;;;;;;5057090;28;20029;-54
2021/05/21 07:07:45;;;;;;;54.05;28.65;;;;;;;;;;5074979;28;20488;-53
2021/05/21 07:10:11;;;;;;;36.83;23.35;;;;;;;;;;5074848;28;20028;-54
2021/05/21 07:12:37;;;;;;;31.95;18.10;;;;;;;;;;5074984;28;20354;-54
2021/05/21 07:15:05;;;;;;;26.85;16.63;;;;;;;;;;5074929;28;20108;-51
2021/05/21 07:17:31;;;;;;;39.75;24.52;;;;;;;;;;5074957;28;20032;-50
2021/05/21 07:19:59;;;;;;;29.80;20.27;;;;;;;;;;5074665;28;20020;-49
2021/05/21 07:22:28;;;;;;;64.03;39.80;;;;;;;;;;5074842;28;20036;-53
2021/05/21 07:24:54;;;;;;;23.90;14.18;;;;;;;;;;5074796;28;20017;-53
2021/05/21 07:27:20;;;;;;;10.63;7.03;;;;;;;;;;5074972;28;20068;-52
2021/05/21 07:29:46;;;;;;;8.10;6.03;;;;;;;;;;5074790;28;20086;-51
2021/05/21 07:32:12;;;;;;;34.35;16.98;;;;;;;;;;5074384;28;20090;-52
2021/05/21 07:34:38;;;;;;;34.15;19.52;;;;;;;;;;5074634;28;20017;-52
2021/05/21 07:37:04;;;;;;;32.80;20.85;;;;;;;;;;5074342;28;20035;-50
2021/05/21 07:39:30;;;;;;;15.35;8.73;;;;;;;;;;5074466;28;20085;-50
2021/05/21 07:41:58;;;;;;;7.25;4.70;;;;;;;;;;5073880;28;20487;-53
2021/05/21 07:44:24;;;;;;;14.43;7.47;;;;;;;;;;5074436;28;20064;-53
2021/05/21 07:46:51;;;;;;;10.85;7.13;;;;;;;;;;5074457;28;20099;-49
2021/05/21 07:49:22;;;;;;;7.90;5.63;;;;;;;;;;5073153;28;20056;-57
2021/05/21 07:51:51;;;;;;;24.60;14.50;;;;;;;;;;5073349;28;20052;-54
2021/05/21 07:54:17;;;;;;;14.38;7.93;;;;;;;;;;5073340;28;20029;-53
2021/05/21 07:56:43;;;;;;;12.43;7.90;;;;;;;;;;5073781;28;20025;-50
2021/05/21 07:59:11;;;;;;;12.60;5.95;;;;;;;;;;5073611;28;20032;-50
2021/05/21 08:01:38;;;;;;;21.45;14.52;;;;;;;;;;5073432;28;20066;-51
2021/05/21 08:04:04;;;;;;;18.50;10.82;;;;;;;;;;5055315;28;20066;-55
2021/05/21 08:06:34;;;;;;;17.67;9.35;;;;;;;;;;5073243;28;20052;-51
2021/05/21 08:09:02;;;;;;;23.80;14.10;;;;;;;;;;5070633;28;20016;-59
2021/05/21 08:11:29;;;;;;;72.97;46.90;;;;;;;;;;5073110;28;20025;-65
2021/05/21 08:13:55;;;;;;;15.57;9.55;;;;;;;;;;5073607;28;20037;-66
2021/05/21 08:16:21;;;;;;;71.82;42.05;;;;;;;;;;5073825;28;20098;-73
2021/05/21 08:18:47;;;;;;;149.95;88.53;;;;;;;;;;5074008;28;20034;-62
2021/05/21 08:21:13;;;;;;;32.58;21.33;;;;;;;;;;5073814;28;20082;-60
2021/05/21 08:23:39;;;;;;;18.27;11.10;;;;;;;;;;5072234;28;20043;-67
2021/05/21 08:26:09;;;;;;;28.92;15.70;;;;;;;;;;5073837;28;20028;-67
2021/05/21 08:28:36;;;;;;;41.20;21.38;;;;;;;;;;5073833;28;20036;-57
2021/05/21 08:31:03;;;;;;;13.30;6.80;;;;;;;;;;5073893;28;20021;-57
2021/05/21 08:33:31;;;;;;;22.20;14.13;;;;;;;;;;5073474;28;20115;-55
2021/05/21 08:35:57;;;;;;;21.52;10.70;;;;;;;;;;5073433;28;20511;-55
2021/05/21 08:38:23;;;;;;;26.33;17.33;;;;;;;;;;5073451;28;20033;-54
2021/05/21 08:40:49;;;;;;;17.48;9.95;;;;;;;;;;5073425;28;20092;-58
2021/05/21 08:43:15;;;;;;;27.70;17.67;;;;;;;;;;5073478;28;20417;-55
2021/05/21 08:45:42;;;;;;;18.45;10.32;;;;;;;;;;5073398;28;20070;-56
2021/05/21 08:48:14;;;;;;;17.90;12.20;;;;;;;;;;5073355;28;20028;-54
2021/05/21 08:50:42;;;;;;;28.60;18.92;;;;;;;;;;5073096;28;20493;-54
2021/05/21 08:53:08;;;;;;;29.33;18.08;;;;;;;;;;5073362;28;20260;-54
2021/05/21 08:55:34;;;;;;;39.55;20.88;;;;;;;;;;5073305;28;20032;-54
2021/05/21 08:58:00;;;;;;;66.03;30.92;;;;;;;;;;5073182;28;20036;-55
2021/05/21 09:00:26;;;;;;;35.03;13.93;;;;;;;;;;5073374;28;20074;-54
2021/05/21 09:02:55;;;;;;;39.28;17.35;;;;;;;;;;5073244;28;20024;-55
2021/05/21 09:05:21;;;;;;;16.15;6.97;;;;;;;;;;5073197;28;20089;-56
2021/05/21 09:07:47;;;;;;;21.58;10.85;;;;;;;;;;5073118;28;20108;-53
2021/05/21 09:10:14;;;;;;;19.88;8.80;;;;;;;;;;5073042;28;20384;-55
2021/05/21 09:12:43;;;;;;;25.23;11.45;;;;;;;;;;5073164;28;20087;-55
2021/05/21 09:15:14;;;;;;;15.73;5.22;;;;;;;;;;5073089;28;20052;-54
2021/05/21 09:17:53;;;;;;;12.95;6.90;;;;;;;;;;5072937;28;20119;-54
2021/05/21 09:20:23;;;;;;;13.88;6.05;;;;;;;;;;5073182;28;20028;-55
2021/05/21 09:22:58;;;;;;;8.60;4.35;;;;;;;;;;5055050;28;20074;-51
2021/05/21 09:25:39;;;;;;;16.27;5.68;;;;;;;;;;5072973;28;20388;-54
2021/05/21 09:28:06;;;;;;;7.40;2.97;;;;;;;;;;5073027;28;20025;-54
2021/05/21 09:30:32;;;;;;;21.83;10.63;;;;;;;;;;5072933;28;20064;-51
2021/05/21 09:33:05;;;;;;;12.02;5.90;;;;;;;;;;5072889;28;20047;-54
2021/05/21 09:35:32;;;;;;;11.65;5.90;;;;;;;;;;5073033;28;20434;-53
2021/05/21 09:37:58;;;;;;;8.27;2.70;;;;;;;;;;5072950;28;20035;-53
2021/05/21 09:40:28;;;;;;;5.40;2.83;;;;;;;;;;5072852;28;20056;-52
2021/05/21 09:42:57;;;;;;;16.27;7.03;;;;;;;;;;5072897;28;20023;-54
2021/05/21 09:45:49;;;;;;;5.25;3.17;;;;;;;;;;5073092;28;20021;-51
2021/05/21 09:48:18;;;;;;;15.10;4.43;;;;;;;;;;5070033;28;20083;-50
2021/05/21 09:50:46;;;;;;;6.55;2.63;;;;;;;;;;5072592;28;20051;-56
2021/05/21 09:53:20;;;;;;;5.65;2.92;;;;;;;;;;5072779;28;20037;-53
2021/05/21 09:56:02;;;;;;;6.55;2.40;;;;;;;;;;5072693;28;20519;-50
2021/05/21 09:58:41;;;;;;;7.97;4.18;;;;;;;;;;5072866;28;20043;-51
2021/05/21 10:01:17;;;;;;;7.38;3.13;;;;;;;;;;5072843;28;20021;-51
2021/05/21 10:03:47;;;;;;;16.67;2.90;;;;;;;;;;5072573;28;20477;-49
2021/05/21 10:06:14;;;;;;;8.35;2.88;;;;;;;;;;5076333;28;20153;-49
2021/05/21 10:08:42;;;;;;;6.00;2.70;;;;;;;;;;5076247;28;20016;-49
2021/05/21 10:11:09;;;;;;;5.20;2.58;;;;;;;;;;5076235;28;20071;-50
2021/05/21 10:13:36;;;;;;;4.95;2.55;;;;;;;;;;5076114;28;20066;-51
2021/05/21 10:16:02;;;;;;;4.03;3.03;;;;;;;;;;5076305;28;20099;-49
2021/05/21 10:18:30;;;;;;;7.22;2.80;;;;;;;;;;5075925;28;20419;-49
2021/05/21 10:20:57;;;;;;;5.38;2.38;;;;;;;;;;5075979;28;20035;-49
2021/05/21 10:23:28;;;;;;;6.32;2.40;;;;;;;;;;5076228;28;20090;-50
2021/05/21 10:25:54;;;;;;;;;;;;;;;;;;5076447;28;20024;-48
2021/05/21 10:28:22;;;;;;;4.25;2.15;;;;;;;;;;5076182;28;20334;-49
2021/05/21 10:30:50;;;;;;;2.80;2.05;;;;;;;;;;5075826;28;20082;-52
2021/05/21 10:33:21;;;;;;;5.45;1.98;;;;;;;;;;5075681;28;20021;-49
2021/05/21 10:35:47;;;;;;;2.80;1.50;;;;;;;;;;5076052;28;20107;-52
2021/05/21 10:38:24;;;;;;;3.97;1.85;;;;;;;;;;5075736;28;20047;-54
2021/05/21 10:41:08;;;;;;;7.32;2.30;;;;;;;;;;5075660;28;20044;-54
2021/05/21 10:43:46;;;;;;;7.03;2.10;;;;;;;;;;5075547;28;20029;-53
2021/05/21 10:46:19;;;;;;;3.95;1.98;;;;;;;;;;5075875;28;20032;-53
2021/05/21 10:49:05;;;;;;;2.60;1.65;;;;;;;;;;5075825;28;20071;-54
2021/05/21 10:52:10;;;;;;;4.05;1.70;;;;;;;;;;5075254;28;20045;-54
2021/05/21 10:54:36;;;;;;;6.25;1.77;;;;;;;;;;5013781;28;20091;-49
2021/05/21 10:57:08;;;;;;;5.25;1.52;;;;;;;;;;5013539;28;20429;-49
2021/05/21 10:59:55;;;;;;;4.85;2.22;;;;;;;;;;5013837;28;20046;-49
2021/05/21 11:02:25;;;;;;;6.15;1.50;;;;;;;;;;5013373;28;20021;-51
2021/05/21 11:04:52;;;;;;;1.85;1.38;;;;;;;;;;5013430;28;20041;-49
2021/05/21 11:07:35;;;;;;;15.88;3.15;;;;;;;;;;5013529;28;20032;-54
2021/05/21 11:10:01;;;;;;;9.82;1.50;;;;;;;;;;5013304;28;20113;-53
2021/05/21 11:12:46;;;;;;;2.53;1.50;;;;;;;;;;5013243;28;20026;-49
2021/05/21 11:15:43;;;;;;;1.40;1.23;;;;;;;;;;5013161;28;20038;-52
2021/05/21 11:18:10;;;;;;;7.07;1.77;;;;;;;;;;4991465;28;20064;-55
2021/05/21 11:20:57;;;;;;;2.30;1.60;;;;;;;;;;5013132;28;20037;-54
2021/05/21 11:23:27;;;;;;;11.48;1.77;;;;;;;;;;5013250;28;20037;-53
2021/05/21 11:26:21;;;;;;;2.40;1.43;;;;;;;;;;5057280;28;20054;-50
2021/05/21 11:28:51;;;;;;;4.53;1.50;;;;;;;;;;5072635;28;20396;-51
2021/05/21 11:31:18;;;;;;;1.93;0.93;;;;;;;;;;5074981;28;20033;-54
2021/05/21 11:33:47;;;;;;;3.35;1.35;;;;;;;;;;5075195;28;20028;-50
2021/05/21 11:36:13;;;;;;;3.80;1.60;;;;;;;;;;5074520;28;20495;-54
2021/05/21 11:38:39;;;;;;;4.03;1.10;;;;;;;;;;5074721;28;20036;-53
2021/05/21 11:41:07;;;;;;;5.88;1.20;;;;;;;;;;5074632;28;20021;-54
2021/05/21 11:43:33;;;;;;;4.70;1.38;;;;;;;;;;5074499;28;20052;-54
2021/05/21 11:45:59;;;;;;;1.02;0.90;;;;;;;;;;5074446;28;20024;-52
2021/05/21 11:48:39;;;;;;;4.07;1.00;;;;;;;;;;5074452;28;20610;-49
2021/05/21 11:51:09;;;;;;;2.70;1.80;;;;;;;;;;5074239;28;20051;-49
2021/05/21 11:53:48;;;;;;;1.15;1.00;;;;;;;;;;5074243;28;20492;-55
2021/05/21 11:56:15;;;;;;;1.27;1.15;;;;;;;;;;5074256;28;20472;-53
2021/05/21 11:58:41;;;;;;;1.58;0.95;;;;;;;;;;5074183;28;20040;-54
2021/05/21 12:01:07;;;;;;;5.68;2.63;;;;;;;;;;5074267;28;20025;-54
2021/05/21 12:03:40;;;;;;;3.42;1.30;;;;;;;;;;5074162;28;20029;-53
2021/05/21 12:06:07;;;;;;;2.95;1.55;;;;;;;;;;5073985;28;20028;-54
2021/05/21 12:08:33;;;;;;;2.03;1.63;;;;;;;;;;5073866;28;20477;-53
2021/05/21 12:11:00;;;;;;;2.35;1.30;;;;;;;;;;5074358;28;20025;-53
2021/05/21 12:13:30;;;;;;;3.15;1.58;;;;;;;;;;5073999;28;20393;-54
2021/05/21 12:16:18;;;;;;;2.67;1.00;;;;;;;;;;5073946;28;20100;-53
2021/05/21 12:18:45;;;;;;;3.72;1.00;;;;;;;;;;5073670;28;20036;-54
2021/05/21 12:21:12;;;;;;;0.70;0.70;;;;;;;;;;5073728;28;20024;-53
2021/05/21 12:23:41;;;;;;;2.08;1.00;;;;;;;;;;5073881;28;20035;-54
2021/05/21 12:26:07;;;;;;;4.13;0.98;;;;;;;;;;5073733;28;20025;-54
2021/05/21 12:28:34;;;;;;;1.65;1.00;;;;;;;;;;5073285;28;20033;-52
2021/05/21 12:31:04;;;;;;;1.63;1.20;;;;;;;;;;5073613;28;20024;-52
2021/05/21 12:33:32;;;;;;;2.63;1.00;;;;;;;;;;5073825;28;20373;-52
2021/05/21 12:36:05;;;;;;;2.38;1.10;;;;;;;;;;5072224;28;20023;-54
2021/05/21 12:38:36;;;;;;;4.38;1.23;;;;;;;;;;5070674;28;20036;-55
2021/05/21 12:41:02;;;;;;;5.25;2.92;;;;;;;;;;5072875;28;20027;-57
2021/05/21 12:43:29;;;;;;;14.38;9.43;;;;;;;;;;5073241;28;20094;-56
2021/05/21 12:46:05;;;;;;;22.67;14.90;;;;;;;;;;5073490;28;20605;-58
2021/05/21 12:48:57;;;;;;;50.42;31.55;;;;;;;;;;5073378;28;20028;-50
2021/05/21 12:51:25;;;;;;;55.90;33.13;;;;;;;;;;5070241;28;20041;-54
2021/05/21 12:53:52;;;;;;;33.83;23.35;;;;;;;;;;5073234;28;20032;-54
2021/05/21 12:56:37;;;;;;;23.90;16.05;;;;;;;;;;5073012;28;20020;-53
2021/05/21 12:59:05;;;;;;;19.60;13.13;;;;;;;;;;5073076;28;20090;-51
2021/05/21 13:01:31;;;;;;;33.90;20.25;;;;;;;;;;5073215;28;20021;-50
2021/05/21 13:03:58;;;;;;;212.88;144.50;;;;;;;;;;5073136;28;20096;-49
2021/05/21 13:06:32;;;;;;;7.35;4.57;;;;;;;;;;5073248;28;20111;-50
2021/05/21 13:08:59;;;;;;;8.13;4.95;;;;;;;;;;5072950;28;20078;-51
2021/05/21 13:11:25;;;;;;;29.75;14.57;;;;;;;;;;5073094;28;20080;-48
2021/05/21 13:13:57;;;;;;;55.53;36.58;;;;;;;;;;5056393;28;20862;-48
2021/05/21 13:16:24;;;;;;;48.47;30.52;;;;;;;;;;5042224;28;20025;-52
2021/05/21 13:18:50;;;;;;;8.25;4.90;;;;;;;;;;5042174;28;20033;-50
2021/05/21 13:21:16;;;;;;;10.00;5.85;;;;;;;;;;5042344;28;20480;-50
2021/05/21 13:23:42;;;;;;;5.22;3.55;;;;;;;;;;5042144;28;20044;-49
2021/05/21 13:26:08;;;;;;;7.78;4.97;;;;;;;;;;5042106;28;20020;-49
2021/05/21 13:28:41;;;;;;;8.60;5.45;;;;;;;;;;5042588;28;20025;-47
2021/05/21 13:31:08;;;;;;;13.85;8.07;;;;;;;;;;5042541;28;20024;-48
2021/05/21 13:33:34;;;;;;;20.08;13.50;;;;;;;;;;5042399;28;20028;-48
2021/05/21 13:36:01;;;;;;;10.35;7.00;;;;;;;;;;5042082;28;20964;-49
2021/05/21 13:38:28;;;;;;;6.90;3.97;;;;;;;;;;5042072;28;20048;-47
2021/05/21 13:40:54;;;;;;;41.83;28.02;;;;;;;;;;5047091;28;20018;-49
2021/05/21 13:43:21;;;;;;;34.40;20.60;;;;;;;;;;5045952;28;20043;-52
2021/05/21 13:45:48;;;;;;;3.95;1.90;;;;;;;;;;5046570;28;20025;-50
2021/05/21 13:48:14;;;;;;;16.38;10.85;;;;;;;;;;5045532;28;20072;-47
2021/05/21 13:50:40;;;;;;;6.40;3.42;;;;;;;;;;5045545;28;20087;-50
2021/05/21 13:53:07;;;;;;;4.95;2.00;;;;;;;;;;5045758;28;20103;-52
2021/05/21 13:55:34;;;;;;;9.10;3.58;;;;;;;;;;5045919;28;20025;-53
2021/05/21 13:58:00;;;;;;;3.25;1.20;;;;;;;;;;5046879;28;20389;-50
2021/05/21 14:00:26;;;;;;;8.52;3.92;;;;;;;;;;5046177;28;20028;-53
2021/05/21 14:02:52;;;;;;;4.72;2.42;;;;;;;;;;5045708;28;20146;-49
2021/05/21 14:05:20;;;;;;;3.42;1.80;;;;;;;;;;5045556;28;20027;-47
2021/05/21 14:07:46;;;;;;;3.47;1.30;;;;;;;;;;5045226;28;20029;-49
2021/05/21 14:10:12;;;;;;;4.80;1.65;;;;;;;;;;5046789;28;20584;-51
2021/05/21 14:12:38;;;;;;;16.42;8.27;;;;;;;;;;5045529;28;20492;-49
2021/05/21 14:15:05;;;;;;;3.17;1.02;;;;;;;;;;5045519;28;20029;-51
2021/05/21 14:17:31;;;;;;;6.05;2.53;;;;;;;;;;5045374;28;20091;-50
2021/05/21 14:19:57;;;;;;;6.50;3.28;;;;;;;;;;5045203;28;20041;-55
2021/05/21 14:22:23;;;;;;;0.90;0.60;;;;;;;;;;5045196;28;20547;-48
2021/05/21 14:24:50;;;;;;;4.45;0.98;;;;;;;;;;5045482;28;20482;-48
2021/05/21 14:27:17;;;;;;;1.23;0.50;;;;;;;;;;5046350;28;20025;-48
2021/05/21 14:29:43;;;;;;;3.00;1.02;;;;;;;;;;5027525;28;20040;-48
2021/05/21 14:32:09;;;;;;;7.00;4.72;;;;;;;;;;5045485;28;20033;-47
2021/05/21 14:34:35;;;;;;;52.45;36.10;;;;;;;;;;5045076;28;20021;-48